Time;durP1;ratioP1;P1;durP2;ratioP2;P2;SDS_P1;SDS_P2;PMS_P1;PMS_P2;Temp;Humidity;BMP_temperature;BMP_pressure;BME280_temperature;BME280_humidity;BME280_pressure;Samples;Min_cycle;Max_cycle;Signal;HPM_P1;HPM_P2
2021/07/30 00:01:35;;;;;;;5.25;3.18;;;;;;;17.94;64.96;96435.39;127936;1093;28332;-93
2021/07/30 00:04:06;;;;;;;6.10;4.28;;;;;;;18.02;65.49;96431.08;127912;1093;33954;-93
2021/07/30 00:06:38;;;;;;;5.30;4.25;;;;;;;18.19;65.34;96430.90;127896;1093;26502;-92
2021/07/30 00:09:11;;;;;;;7.05;4.40;;;;;;;18.27;64.87;96427.33;127943;1093;24722;-92
2021/07/30 00:11:44;;;;;;;5.30;3.85;;;;;;;18.29;64.86;96422.41;127902;1093;27434;-93
2021/07/30 00:14:15;;;;;;;6.93;4.15;;;;;;;18.35;65.05;96421.09;127912;1092;28214;-93
2021/07/30 00:16:47;;;;;;;6.63;4.40;;;;;;;18.37;65.05;96421.55;127901;1093;25272;-93
2021/07/30 00:19:18;;;;;;;7.68;4.60;;;;;;;18.41;65.12;96416.29;127955;1092;23612;-92
2021/07/30 00:21:49;;;;;;;6.87;4.60;;;;;;;18.42;65.18;96409.02;127866;1093;40900;-92
2021/07/30 00:24:21;;;;;;;6.98;4.35;;;;;;;18.42;65.06;96422.44;127936;1093;25688;-92
2021/07/30 00:26:52;;;;;;;6.78;4.55;;;;;;;18.40;65.26;96417.41;127914;1092;27932;-93
2021/07/30 00:29:23;;;;;;;6.93;4.30;;;;;;;18.39;65.36;96419.31;127923;1093;26757;-93
2021/07/30 00:31:55;;;;;;;6.80;4.90;;;;;;;18.43;65.50;96424.00;127941;1093;24643;-93
2021/07/30 00:34:26;;;;;;;7.83;5.33;;;;;;;18.40;65.58;96420.09;127892;1093;30136;-93
2021/07/30 00:36:57;;;;;;;7.30;4.60;;;;;;;18.38;65.68;96422.33;127898;1093;28016;-93
2021/07/30 00:39:29;;;;;;;12.20;4.83;;;;;;;18.40;65.73;96415.50;127854;1093;29953;-93
2021/07/30 00:42:02;;;;;;;7.15;4.83;;;;;;;18.46;65.77;96415.31;127917;1093;22980;-92
2021/07/30 00:44:33;;;;;;;7.38;4.53;;;;;;;18.48;65.62;96424.59;127882;1093;33706;-94
2021/07/30 00:47:05;;;;;;;6.23;4.30;;;;;;;18.47;65.75;96419.56;127892;1092;26848;-92
2021/07/30 00:49:37;;;;;;;5.98;4.03;;;;;;;18.48;65.50;96421.91;127899;1093;28834;-93
2021/07/30 00:52:09;;;;;;;7.30;4.43;;;;;;;18.49;65.51;96425.38;127934;1093;26280;-92
2021/07/30 00:54:40;;;;;;;6.48;4.63;;;;;;;18.53;65.50;96428.95;127984;1093;24320;-94
2021/07/30 00:57:11;;;;;;;7.65;5.05;;;;;;;18.53;65.54;96418.21;127964;1093;25537;-93
2021/07/30 00:59:44;;;;;;;6.75;4.55;;;;;;;18.52;65.39;96414.75;127962;1093;23337;-93
2021/07/30 01:02:15;;;;;;;5.48;4.10;;;;;;;18.52;65.65;96416.65;127903;1093;26598;-93
2021/07/30 01:04:47;;;;;;;5.98;4.43;;;;;;;18.52;65.46;96412.06;127713;1093;24443;-93
2021/07/30 01:07:18;;;;;;;6.80;4.63;;;;;;;18.49;65.34;96403.90;127923;1093;24384;-93
2021/07/30 01:09:49;;;;;;;6.30;4.30;;;;;;;18.47;65.44;96411.51;127909;1092;24139;-92
2021/07/30 01:12:21;;;;;;;5.78;4.53;;;;;;;18.46;65.59;96413.41;127891;1093;26611;-93
2021/07/30 01:14:54;;;;;;;6.18;4.38;;;;;;;18.41;65.49;96408.23;127915;1093;23710;-93
2021/07/30 01:17:25;;;;;;;4.93;4.00;;;;;;;18.44;65.28;96409.47;127914;1093;27350;-92
2021/07/30 01:19:57;;;;;;;5.98;4.50;;;;;;;18.37;65.30;96408.13;127896;1093;25707;-94
2021/07/30 01:22:32;;;;;;;5.85;4.25;;;;;;;18.36;65.50;96403.88;127845;1093;26705;-92
2021/07/30 01:25:03;;;;;;;9.55;4.45;;;;;;;18.44;65.50;96404.91;127935;1093;25901;-93
2021/07/30 01:27:35;;;;;;;5.90;4.05;;;;;;;18.49;65.69;96403.90;127811;1093;27747;-93
2021/07/30 01:30:07;;;;;;;6.08;4.30;;;;;;;18.49;65.57;96407.37;127762;1093;22963;-93
2021/07/30 01:32:39;;;;;;;6.08;4.38;;;;;;;18.46;65.40;96404.58;127935;1093;26355;-93
2021/07/30 01:35:11;;;;;;;7.58;4.70;;;;;;;18.40;65.62;96406.67;128013;1093;22795;-93
2021/07/30 01:37:43;;;;;;;6.23;4.43;;;;;;;18.36;65.38;96403.88;127939;1092;27561;-92
2021/07/30 01:40:21;;;;;;;7.43;4.60;;;;;;;18.40;65.74;96402.09;127893;1093;26215;-92
2021/07/30 01:42:52;;;;;;;5.25;4.05;;;;;;;18.44;65.84;96401.41;127906;1093;27056;-93
2021/07/30 01:45:23;;;;;;;5.58;4.00;;;;;;;18.48;65.78;96396.97;127911;1093;22813;-93
2021/07/30 01:47:55;;;;;;;6.78;4.23;;;;;;;18.48;65.67;96395.06;127919;1093;26233;-93
2021/07/30 01:50:26;;;;;;;6.65;4.40;;;;;;;18.46;66.03;96393.84;127872;1092;29425;-93
2021/07/30 01:52:57;;;;;;;8.30;4.68;;;;;;;18.51;65.70;96396.30;127920;1093;23581;-92
2021/07/30 01:55:29;;;;;;;6.23;4.45;;;;;;;18.56;66.36;96401.43;127887;1093;25603;-93
2021/07/30 01:58:00;;;;;;;8.10;3.90;;;;;;;18.58;66.23;96399.19;127889;1093;23802;-91
2021/07/30 02:00:31;;;;;;;6.45;4.48;;;;;;;18.63;66.27;96390.94;127902;1093;26106;-92
2021/07/30 02:03:03;;;;;;;6.75;4.43;;;;;;;18.63;66.04;96390.94;127927;1093;24030;-92
2021/07/30 02:05:34;;;;;;;7.78;4.50;;;;;;;18.65;65.97;96394.09;127885;1093;27226;-92
2021/07/30 02:08:06;;;;;;;6.40;4.48;;;;;;;18.61;65.97;96391.27;127734;1093;26314;-93
2021/07/30 02:10:39;;;;;;;7.53;4.60;;;;;;;18.55;66.23;96391.81;127905;1093;26374;-93
2021/07/30 02:16:11;;;;;;;6.38;4.88;;;;;;;18.37;66.73;96383.97;127587;1095;29462;-93
2021/07/30 02:18:43;;;;;;;7.88;5.18;;;;;;;18.31;66.94;96388.00;127892;1093;27274;-93
2021/07/30 02:21:15;;;;;;;7.95;4.98;;;;;;;18.25;66.99;96381.27;127834;1093;28714;-91
2021/07/30 02:23:47;;;;;;;6.77;4.83;;;;;;;18.25;67.04;96386.63;127756;1093;26945;-92
2021/07/30 02:26:18;;;;;;;7.35;4.65;;;;;;;18.27;67.06;96381.71;127934;1093;26414;-94
2021/07/30 02:28:50;;;;;;;7.73;5.10;;;;;;;18.29;67.10;96387.52;127904;1093;24668;-92
2021/07/30 02:31:21;;;;;;;6.50;4.40;;;;;;;18.27;67.03;96379.02;127926;1092;25133;-93
2021/07/30 02:33:52;;;;;;;6.50;4.70;;;;;;;18.26;67.07;96372.09;127952;1093;28857;-94
2021/07/30 02:36:24;;;;;;;6.30;4.70;;;;;;;18.27;67.23;96375.56;127908;1093;31692;-93
2021/07/30 02:38:55;;;;;;;6.78;4.35;;;;;;;18.25;67.18;96367.84;127929;1093;23309;-93
2021/07/30 02:41:26;;;;;;;6.20;4.40;;;;;;;18.19;67.41;96377.23;127884;1093;27429;-93
2021/07/30 02:43:58;;;;;;;5.25;4.20;;;;;;;18.14;67.39;96373.97;127911;1093;24924;-94
2021/07/30 02:46:29;;;;;;;6.90;4.48;;;;;;;18.15;67.53;96376.31;127931;1091;25844;-93
2021/07/30 02:49:01;;;;;;;6.65;4.60;;;;;;;18.16;67.48;96371.73;127924;1091;29934;-93
2021/07/30 02:51:32;;;;;;;7.00;4.58;;;;;;;18.15;67.67;96375.53;127936;1092;26918;-92
2021/07/30 02:54:03;;;;;;;6.08;4.40;;;;;;;18.09;67.80;96374.97;127891;1093;67579;-93
2021/07/30 02:56:35;;;;;;;5.73;4.60;;;;;;;18.09;67.71;96369.61;127920;1093;35041;-92
2021/07/30 02:59:06;;;;;;;6.68;4.60;;;;;;;18.09;67.79;96372.28;127914;1093;25402;-92
2021/07/30 03:01:38;;;;;;;7.45;4.38;;;;;;;18.06;68.05;96371.06;127929;1093;26475;-94
2021/07/30 03:04:09;;;;;;;9.25;4.78;;;;;;;18.05;67.82;96368.71;127953;1093;25018;-92
2021/07/30 03:06:40;;;;;;;6.35;4.35;;;;;;;18.07;68.07;96366.47;127986;1092;26640;-92
2021/07/30 03:09:15;;;;;;;7.33;4.85;;;;;;;18.10;67.96;96368.48;128006;1093;24321;-93
2021/07/30 03:11:46;;;;;;;5.33;4.30;;;;;;;18.14;67.90;96368.59;127945;1093;27932;-92
2021/07/30 03:14:17;;;;;;;7.28;4.43;;;;;;;18.17;67.71;96370.64;127985;1093;24729;-94
2021/07/30 03:16:50;;;;;;;7.95;4.65;;;;;;;18.19;67.87;96369.19;128017;1093;26807;-93
2021/07/30 03:19:22;;;;;;;7.45;4.73;;;;;;;18.20;67.79;96369.97;127934;1093;31544;-92
2021/07/30 03:21:53;;;;;;;5.60;4.30;;;;;;;18.21;67.83;96366.95;127930;1093;28708;-93
2021/07/30 03:24:25;;;;;;;7.63;4.63;;;;;;;18.22;67.89;96373.10;128010;1093;32807;-93
2021/07/30 03:26:56;;;;;;;7.43;4.28;;;;;;;18.23;67.95;96378.13;127999;1093;28818;-93
2021/07/30 03:29:27;;;;;;;6.65;4.05;;;;;;;18.24;67.90;96368.96;127919;1093;27460;-94
2021/07/30 03:32:01;;;;;;;7.65;4.43;;;;;;;18.27;67.81;96367.51;127920;1093;27087;-94
2021/07/30 03:34:33;;;;;;;5.70;4.45;;;;;;;18.31;68.11;96374.58;127817;1093;28213;-92
2021/07/30 03:37:05;;;;;;;6.75;4.78;;;;;;;18.34;67.65;96378.49;127721;1093;26235;-90
2021/07/30 03:39:36;;;;;;;6.13;4.70;;;;;;;18.34;67.76;96371.22;127802;1093;22822;-93
2021/07/30 03:42:08;;;;;;;6.45;4.43;;;;;;;18.35;67.79;96372.00;127876;1093;32684;-91
2021/07/30 03:44:40;;;;;;;6.65;4.00;;;;;;;18.36;67.73;96376.25;128026;1093;24065;-92
2021/07/30 03:47:11;;;;;;;5.30;4.38;;;;;;;18.43;67.59;96370.32;127951;1093;24584;-93
2021/07/30 03:49:43;;;;;;;7.90;4.60;;;;;;;18.45;67.52;96374.27;127969;1093;23648;-94
2021/07/30 03:52:17;;;;;;;6.98;4.85;;;;;;;18.46;67.45;96375.05;127897;1093;27193;-90
2021/07/30 03:54:48;;;;;;;7.48;4.73;;;;;;;18.45;67.39;96374.27;127920;1093;25237;-93
2021/07/30 03:57:19;;;;;;;7.08;4.80;;;;;;;18.50;67.14;96375.94;127807;1093;24883;-93
2021/07/30 03:59:54;;;;;;;7.25;4.63;;;;;;;18.52;67.37;96373.70;127912;1093;26408;-92
2021/07/30 04:02:25;;;;;;;6.10;4.68;;;;;;;18.55;67.32;96378.39;127770;1093;26178;-92
2021/07/30 04:04:56;;;;;;;6.63;4.75;;;;;;;18.57;67.15;96376.93;127903;1093;26590;-92
2021/07/30 04:07:28;;;;;;;6.80;4.33;;;;;;;18.59;67.21;96379.30;127940;1093;26165;-93
2021/07/30 04:09:59;;;;;;;5.50;4.20;;;;;;;18.61;67.20;96382.44;127919;1093;25178;-94
2021/07/30 04:12:30;;;;;;;7.90;4.45;;;;;;;18.65;67.05;96373.39;127919;1093;28088;-94
2021/07/30 04:15:02;;;;;;;6.65;4.15;;;;;;;18.71;66.97;96373.16;127882;1093;25964;-94
2021/07/30 04:17:33;;;;;;;6.18;4.58;;;;;;;18.74;66.98;96378.66;127931;1093;25781;-93
2021/07/30 04:20:05;;;;;;;5.63;4.10;;;;;;;18.80;66.95;96371.94;127937;1093;22816;-94
2021/07/30 04:22:39;;;;;;;5.13;3.93;;;;;;;18.89;66.81;96366.46;127940;1093;25931;-93
2021/07/30 04:25:12;;;;;;;7.28;4.35;;;;;;;18.97;66.63;96369.00;130079;1092;23109;-92
2021/07/30 04:27:43;;;;;;;6.83;4.25;;;;;;;19.02;66.44;96361.86;130020;1091;23185;-90
2021/07/30 04:30:15;;;;;;;8.27;4.27;;;;;;;19.12;66.53;96380.18;128482;1092;27234;-90
2021/07/30 04:32:46;;;;;;;5.95;4.43;;;;;;;19.25;66.24;96373.66;127877;1093;26245;-93
2021/07/30 04:35:18;;;;;;;6.03;4.45;;;;;;;19.35;65.85;96375.11;127892;1093;24424;-94
2021/07/30 04:37:49;;;;;;;6.73;4.10;;;;;;;19.42;65.89;96373.39;127956;1093;23994;-93
2021/07/30 04:40:21;;;;;;;6.53;4.23;;;;;;;19.51;65.42;96373.27;127927;1092;24543;-93
2021/07/30 04:42:52;;;;;;;8.65;4.33;;;;;;;19.56;65.32;96379.23;127923;1093;22783;-92
2021/07/30 04:45:23;;;;;;;5.78;4.30;;;;;;;19.64;65.27;96384.80;127841;1093;26937;-91
2021/07/30 04:47:54;;;;;;;6.85;4.70;;;;;;;19.78;64.99;96377.90;127901;1093;28627;-92
2021/07/30 04:50:26;;;;;;;6.95;4.98;;;;;;;20.04;64.85;96372.06;127907;1093;25019;-91
2021/07/30 04:52:57;;;;;;;7.50;4.23;;;;;;;20.40;64.64;96368.34;127891;1093;25361;-93
2021/07/30 04:55:29;;;;;;;6.98;4.20;;;;;;;20.77;63.86;96380.80;127818;1093;28283;-92
2021/07/30 04:58:00;;;;;;;6.40;4.48;;;;;;;20.83;62.88;96374.01;127892;1093;23342;-93
2021/07/30 05:00:32;;;;;;;5.60;3.90;;;;;;;21.68;62.70;96375.09;127769;1092;24181;-91
2021/07/30 05:03:03;;;;;;;8.18;4.30;;;;;;;23.51;60.53;96370.43;127765;1093;23737;-90
2021/07/30 05:05:35;;;;;;;5.58;3.63;;;;;;;25.47;57.84;96366.77;127881;1093;26079;-92
2021/07/30 05:08:06;;;;;;;4.60;3.90;;;;;;;26.76;54.19;96365.96;127877;1093;23821;-91
2021/07/30 05:10:38;;;;;;;4.78;3.88;;;;;;;28.06;51.58;96370.69;127904;1093;27287;-93
2021/07/30 05:13:09;;;;;;;6.83;4.40;;;;;;;28.96;49.71;96361.48;127937;1093;23163;-92
2021/07/30 05:15:40;;;;;;;5.43;3.95;;;;;;;29.87;47.60;96367.56;127927;1092;25855;-91
2021/07/30 05:18:12;;;;;;;5.50;4.10;;;;;;;30.44;43.61;96356.63;127852;1093;26319;-93
2021/07/30 05:20:43;;;;;;;4.08;3.50;;;;;;;31.08;43.59;96358.31;127772;1093;26038;-92
2021/07/30 05:23:14;;;;;;;5.35;3.88;;;;;;;31.49;42.81;96360.70;127870;1093;24157;-91
2021/07/30 05:25:54;;;;;;;4.03;3.60;;;;;;;32.04;41.06;96358.44;127784;1093;25571;-94
2021/07/30 05:28:26;;;;;;;4.80;3.95;;;;;;;32.61;40.40;96363.42;127878;1093;22835;-93
2021/07/30 05:30:58;;;;;;;4.63;4.10;;;;;;;33.12;40.22;96365.73;127860;1093;24576;-93
2021/07/30 05:33:30;;;;;;;4.13;3.60;;;;;;;33.85;38.73;96364.14;127869;1093;26296;-92
2021/07/30 05:36:01;;;;;;;4.20;3.63;;;;;;;32.44;38.25;96373.63;127840;1093;23060;-92
2021/07/30 05:38:33;;;;;;;5.73;3.93;;;;;;;32.57;38.13;96364.72;127787;1093;24135;-92
2021/07/30 05:41:04;;;;;;;5.30;3.95;;;;;;;33.06;37.63;96362.72;127829;1093;22950;-92
2021/07/30 05:43:35;;;;;;;3.73;3.35;;;;;;;33.52;37.30;96363.52;127885;1093;23434;-91
2021/07/30 05:46:07;;;;;;;5.83;3.60;;;;;;;34.46;36.16;96368.63;127875;1092;24327;-92
2021/07/30 05:48:39;;;;;;;4.25;3.40;;;;;;;34.69;35.37;96371.04;127899;1093;32715;-92
2021/07/30 05:51:11;;;;;;;4.78;3.05;;;;;;;34.95;35.49;96371.80;127938;1093;22856;-92
2021/07/30 05:53:43;;;;;;;4.40;3.38;;;;;;;35.21;35.00;96369.73;127934;1093;23051;-91
2021/07/30 05:56:14;;;;;;;4.63;3.63;;;;;;;35.65;33.87;96367.03;127904;1093;22789;-87
2021/07/30 05:58:45;;;;;;;4.30;3.60;;;;;;;35.91;33.83;96370.45;127851;1093;22934;-90
2021/07/30 06:01:17;;;;;;;4.38;3.55;;;;;;;36.20;33.16;96372.89;127882;1093;23340;-92
2021/07/30 06:03:49;;;;;;;5.40;3.23;;;;;;;36.03;32.67;96374.32;127866;1093;24203;-91
2021/07/30 06:06:20;;;;;;;5.07;3.43;;;;;;;35.15;32.09;96379.77;127883;1093;22944;-91
2021/07/30 06:08:51;;;;;;;5.20;3.85;;;;;;;33.00;33.75;96378.20;127847;1093;22823;-92
2021/07/30 06:11:23;;;;;;;5.83;3.70;;;;;;;32.18;34.45;96380.84;127886;1093;33905;-92
2021/07/30 06:13:54;;;;;;;4.30;3.45;;;;;;;31.52;35.81;96373.55;127815;1093;22786;-93
2021/07/30 06:16:25;;;;;;;7.13;4.20;;;;;;;30.78;36.12;96383.08;127884;1093;24580;-92
2021/07/30 06:18:57;;;;;;;4.18;3.78;;;;;;;29.58;37.45;96378.84;127829;1093;22853;-93
2021/07/30 06:21:30;;;;;;;6.23;4.33;;;;;;;28.47;38.50;96380.98;127671;1093;27271;-93
2021/07/30 06:24:02;;;;;;;6.58;4.28;;;;;;;27.74;40.10;96387.97;127811;1093;26242;-92
2021/07/30 06:26:33;;;;;;;5.58;4.05;;;;;;;27.33;40.83;96392.34;127892;1093;22799;-92
2021/07/30 06:29:05;;;;;;;7.05;4.48;;;;;;;26.85;41.75;96384.59;127732;1093;22819;-91
2021/07/30 06:31:36;;;;;;;6.83;3.95;;;;;;;26.38;42.72;96386.52;127897;1093;22835;-91
2021/07/30 06:34:08;;;;;;;5.48;3.75;;;;;;;26.31;43.09;96386.46;127870;1093;36606;-91
2021/07/30 06:36:39;;;;;;;5.60;4.55;;;;;;;26.01;43.59;96384.07;127926;1093;24835;-91
2021/07/30 06:39:11;;;;;;;4.97;4.10;;;;;;;26.61;44.66;96388.88;127881;1093;23168;-92
2021/07/30 06:41:43;;;;;;;5.28;3.75;;;;;;;28.87;43.40;96383.03;127890;1093;23570;-91
2021/07/30 06:44:14;;;;;;;4.58;3.95;;;;;;;30.87;41.17;96381.37;127877;1093;24271;-93
2021/07/30 06:46:45;;;;;;;6.10;3.73;;;;;;;30.90;40.39;96382.50;127895;1093;25461;-93
2021/07/30 06:49:17;;;;;;;6.13;3.93;;;;;;;33.10;39.59;96387.38;127865;1091;24623;-93
2021/07/30 06:51:48;;;;;;;4.53;3.80;;;;;;;33.59;36.23;96388.04;127884;1093;22976;-93
2021/07/30 06:54:19;;;;;;;4.65;3.90;;;;;;;32.45;36.44;96372.42;127882;1093;22809;-91
2021/07/30 06:56:51;;;;;;;5.75;3.53;;;;;;;32.97;37.03;96379.84;127866;1093;31255;-91
2021/07/30 06:59:22;;;;;;;4.58;3.58;;;;;;;34.33;36.76;96376.86;127889;1093;26238;-92
2021/07/30 07:01:54;;;;;;;4.65;3.73;;;;;;;35.08;34.90;96372.53;127608;1093;23284;-92
2021/07/30 07:04:25;;;;;;;4.88;3.30;;;;;;;34.11;34.29;96373.23;127850;1093;28117;-91
2021/07/30 07:06:57;;;;;;;5.78;3.88;;;;;;;34.70;35.41;96369.83;127875;1093;24680;-91
2021/07/30 07:09:29;;;;;;;3.48;3.18;;;;;;;36.61;33.46;96368.94;127883;1093;22813;-92
2021/07/30 07:12:02;;;;;;;4.15;3.23;;;;;;;38.02;32.40;96366.87;127858;1093;23042;-92
2021/07/30 07:14:34;;;;;;;4.67;3.33;;;;;;;39.53;30.89;96368.66;127848;1093;23751;-92
2021/07/30 07:17:05;;;;;;;3.60;3.30;;;;;;;40.65;29.75;96372.11;127758;1093;25043;-92
2021/07/30 07:19:38;;;;;;;3.80;3.40;;;;;;;40.99;27.96;96369.83;127862;1093;27874;-92
2021/07/30 07:22:09;;;;;;;3.43;3.13;;;;;;;41.33;27.01;96373.79;127950;1093;23224;-93
2021/07/30 07:24:41;;;;;;;3.48;2.88;;;;;;;41.26;27.21;96370.69;127959;1092;22780;-91
2021/07/30 07:27:13;;;;;;;3.43;3.13;;;;;;;41.89;27.84;96376.41;127930;1093;23007;-92
2021/07/30 07:29:46;;;;;;;3.63;3.28;;;;;;;43.00;26.63;96361.80;127963;1093;24330;-92
2021/07/30 07:32:17;;;;;;;3.77;3.20;;;;;;;43.32;26.28;96363.20;127598;1093;24477;-93
2021/07/30 07:34:49;;;;;;;5.18;3.20;;;;;;;43.66;24.98;96366.86;127702;1093;22767;-93
2021/07/30 07:37:20;;;;;;;3.78;3.03;;;;;;;44.19;24.24;96364.39;127757;1093;23210;-94
2021/07/30 07:39:51;;;;;;;3.15;2.73;;;;;;;45.06;23.79;96361.22;127901;1093;22764;-93
2021/07/30 07:42:23;;;;;;;3.98;2.98;;;;;;;45.69;23.30;96363.22;127860;1092;23866;-93
2021/07/30 07:44:54;;;;;;;3.13;2.83;;;;;;;46.23;23.07;96368.19;127781;1093;25266;-93
2021/07/30 07:47:25;;;;;;;3.53;3.00;;;;;;;46.75;22.36;96375.62;127685;1093;24163;-93
2021/07/30 07:49:57;;;;;;;3.13;2.83;;;;;;;46.35;20.71;96369.61;127860;1093;26592;-92
2021/07/30 07:52:28;;;;;;;4.58;3.18;;;;;;;45.15;20.72;96360.15;127745;1093;27048;-91
2021/07/30 07:55:00;;;;;;;3.33;3.00;;;;;;;45.38;21.41;96358.04;127714;1092;24632;-91
2021/07/30 07:57:31;;;;;;;3.50;3.20;;;;;;;45.67;21.10;96357.38;127848;1093;26236;-92
2021/07/30 08:00:02;;;;;;;3.33;3.03;;;;;;;44.73;21.41;96350.86;127834;1093;22985;-91
2021/07/30 08:02:34;;;;;;;4.50;2.90;;;;;;;44.44;22.19;96349.38;127846;1093;27170;-92
2021/07/30 08:05:05;;;;;;;3.20;2.90;;;;;;;45.71;21.87;96343.84;127813;1093;24626;-91
2021/07/30 08:07:37;;;;;;;3.85;3.40;;;;;;;45.24;20.92;96338.23;127665;1093;27269;-91
2021/07/30 08:10:09;;;;;;;3.93;3.58;;;;;;;44.81;21.12;96351.86;127843;1093;22842;-93
2021/07/30 08:12:41;;;;;;;3.75;3.45;;;;;;;44.90;20.93;96345.99;127902;1093;22786;-92
2021/07/30 08:15:13;;;;;;;4.60;3.70;;;;;;;44.43;20.81;96347.85;127732;1092;22813;-93
2021/07/30 08:17:44;;;;;;;3.68;3.38;;;;;;;43.56;21.42;96340.44;127881;1093;22786;-92
2021/07/30 08:20:17;;;;;;;3.80;3.33;;;;;;;43.43;21.80;96338.12;127819;1093;22951;-92
2021/07/30 08:22:48;;;;;;;3.83;3.28;;;;;;;42.80;21.94;96334.81;127846;1093;32761;-92
2021/07/30 08:25:20;;;;;;;3.70;3.25;;;;;;;42.96;22.95;96332.13;127838;1093;23733;-91
2021/07/30 08:27:51;;;;;;;3.80;3.40;;;;;;;42.76;19.86;96326.66;127665;1093;23278;-93
2021/07/30 08:30:23;;;;;;;5.20;3.90;;;;;;;40.95;21.85;96324.75;127836;1093;24067;-92
2021/07/30 08:32:54;;;;;;;3.85;3.25;;;;;;;40.57;21.89;96320.97;127685;1093;24387;-93
2021/07/30 08:35:26;;;;;;;5.18;3.68;;;;;;;39.83;23.31;96311.95;127827;1093;23096;-92
2021/07/30 08:37:57;;;;;;;5.75;3.70;;;;;;;39.97;24.10;96324.31;127820;1093;27427;-92
2021/07/30 08:40:34;;;;;;;6.35;3.73;;;;;;;38.04;24.64;96316.58;127734;1093;22715;-93
2021/07/30 08:43:06;;;;;;;4.03;3.20;;;;;;;37.03;26.71;96313.92;127770;1093;25505;-92
2021/07/30 08:45:37;;;;;;;4.33;3.70;;;;;;;36.55;27.71;96324.56;127740;1092;38382;-92
2021/07/30 08:48:09;;;;;;;3.95;3.53;;;;;;;35.70;27.29;96314.04;127747;1093;23647;-94
2021/07/30 08:50:43;;;;;;;4.30;3.80;;;;;;;34.19;28.72;96323.03;127898;1093;24427;-94
2021/07/30 08:53:20;;;;;;;4.90;3.60;;;;;;;32.73;29.79;96315.30;127916;1093;24184;-93
2021/07/30 08:55:52;;;;;;;5.00;3.85;;;;;;;32.05;30.49;96314.13;127870;1093;24424;-96
2021/07/30 08:58:23;;;;;;;4.53;3.80;;;;;;;31.48;31.92;96317.28;127844;1093;25769;-96
2021/07/30 09:00:57;;;;;;;4.68;3.68;;;;;;;31.19;33.15;96312.36;127823;1091;23002;-93
2021/07/30 09:03:38;;;;;;;4.93;3.90;;;;;;;30.91;33.22;96296.44;127891;1093;24411;-93
2021/07/30 09:06:19;;;;;;;5.40;3.95;;;;;;;30.61;34.02;96300.84;127912;1093;22787;-93
2021/07/30 09:09:08;;;;;;;4.00;3.33;;;;;;;30.61;35.36;96295.36;127839;1092;24971;-93
2021/07/30 09:11:41;;;;;;;5.55;3.58;;;;;;;30.47;34.00;96303.03;127886;1093;24430;-93
2021/07/30 09:14:14;;;;;;;4.30;3.70;;;;;;;29.86;34.56;96301.19;127974;1092;22779;-93
2021/07/30 09:16:53;;;;;;;4.70;3.63;;;;;;;29.14;35.37;96300.50;127896;1092;23523;-89
2021/07/30 09:19:24;;;;;;;5.45;3.70;;;;;;;29.09;37.57;96295.47;127843;1093;31634;-91
2021/07/30 09:22:07;;;;;;;5.38;3.90;;;;;;;29.25;37.76;96285.52;127786;1093;24393;-92
2021/07/30 09:24:42;;;;;;;5.08;3.78;;;;;;;29.12;37.65;96289.96;127898;1093;24637;-92
2021/07/30 09:27:15;;;;;;;4.73;3.83;;;;;;;29.25;37.72;96287.48;127947;1093;26032;-92
2021/07/30 09:29:46;;;;;;;4.58;3.78;;;;;;;29.00;36.66;96276.86;127897;1092;22786;-91
2021/07/30 09:32:18;;;;;;;4.63;3.65;;;;;;;28.78;37.51;96275.50;127887;1093;22816;-92
2021/07/30 09:34:51;;;;;;;6.38;4.20;;;;;;;28.71;37.89;96273.59;127880;1093;23480;-90
2021/07/30 09:37:26;;;;;;;5.53;4.23;;;;;;;28.58;38.56;96275.30;127895;1092;23265;-91
2021/07/30 09:39:57;;;;;;;5.55;4.38;;;;;;;28.48;39.48;96274.21;127804;1093;27375;-92
2021/07/30 09:42:35;;;;;;;5.43;4.18;;;;;;;28.36;38.87;96267.30;127875;1093;22816;-92
2021/07/30 09:45:09;;;;;;;5.18;4.23;;;;;;;28.43;39.59;96268.40;127867;1093;26236;-91
2021/07/30 09:47:51;;;;;;;5.25;4.10;;;;;;;28.73;40.25;96259.58;127873;1093;24287;-91
2021/07/30 09:50:23;;;;;;;5.88;4.25;;;;;;;28.93;39.91;96264.05;127797;1093;26286;-94
2021/07/30 09:53:01;;;;;;;4.90;3.88;;;;;;;28.59;39.02;96266.72;127776;1093;23052;-94
2021/07/30 09:55:34;;;;;;;4.88;3.70;;;;;;;28.12;39.84;96262.00;127585;1093;28177;-93
2021/07/30 09:58:06;;;;;;;6.35;4.23;;;;;;;27.90;40.96;96261.39;127768;1093;23786;-96
2021/07/30 10:00:39;;;;;;;5.47;3.87;;;;;;;28.06;41.45;96256.99;127750;1093;23907;-93
2021/07/30 10:03:12;;;;;;;4.98;4.28;;;;;;;28.19;41.73;96260.02;127832;1093;26277;-92
2021/07/30 10:05:43;;;;;;;6.13;4.20;;;;;;;28.34;41.06;96255.25;127832;1093;23744;-90
2021/07/30 10:08:15;;;;;;;7.17;4.17;;;;;;;28.54;41.15;96250.00;127943;1091;22922;-92
2021/07/30 10:10:47;;;;;;;5.07;4.47;;;;;;;28.59;40.66;96241.39;127802;1093;25372;-92
2021/07/30 10:13:24;;;;;;;6.43;4.23;;;;;;;28.57;41.20;96241.00;127840;1093;26565;-94
2021/07/30 10:15:57;;;;;;;6.68;4.58;;;;;;;28.42;41.34;96234.91;127884;1093;23273;-94
2021/07/30 10:18:28;;;;;;;5.53;4.63;;;;;;;28.30;41.93;96232.70;127879;1093;29299;-94
2021/07/30 10:21:02;;;;;;;5.98;4.28;;;;;;;28.29;42.49;96231.93;127881;1093;22959;-93
2021/07/30 10:23:38;;;;;;;5.73;4.38;;;;;;;28.34;41.89;96228.75;127843;1093;25820;-91
2021/07/30 10:26:10;;;;;;;5.25;4.03;;;;;;;28.35;42.25;96224.84;127828;1092;26293;-91
2021/07/30 10:28:42;;;;;;;5.23;4.30;;;;;;;28.31;41.92;96224.11;127691;1093;26850;-88
2021/07/30 10:31:15;;;;;;;6.03;4.83;;;;;;;28.31;41.33;96213.21;127649;1093;24442;-94
2021/07/30 10:33:53;;;;;;;5.70;3.55;;;;;;;28.39;41.20;96208.45;127913;1093;35281;-94
2021/07/30 10:36:38;;;;;;;4.90;4.10;;;;;;;28.55;41.59;96213.36;127869;1092;27477;-94
2021/07/30 10:39:18;;;;;;;4.93;3.80;;;;;;;28.61;42.40;96203.57;128416;1092;26446;-89
2021/07/30 10:42:12;;;;;;;6.15;4.25;;;;;;;28.72;40.98;96204.23;129639;1093;29607;-92
2021/07/30 10:45:19;;;;;;;4.40;3.85;;;;;;;28.73;41.59;96194.88;129857;1091;30027;-92
2021/07/30 10:48:34;;;;;;;4.83;3.90;;;;;;;28.61;40.31;96200.84;127927;1093;26489;-92
2021/07/30 10:51:25;;;;;;;6.40;4.20;;;;;;;28.59;40.78;96203.20;127677;1093;32162;-94
2021/07/30 10:53:58;;;;;;;5.30;3.85;;;;;;;28.53;39.70;96196.63;127880;1093;30738;-96
2021/07/30 10:56:51;;;;;;;5.90;3.80;;;;;;;28.63;39.80;96198.48;127882;1093;38089;-95
2021/07/30 10:59:27;;;;;;;6.48;3.60;;;;;;;28.62;39.21;96177.84;127892;1093;53088;-93
2021/07/30 11:02:03;;;;;;;4.93;3.85;;;;;;;28.64;40.45;96187.16;127796;1093;35800;-93
2021/07/30 11:04:36;;;;;;;5.25;3.70;;;;;;;28.85;39.98;96180.67;127687;1093;33292;-93
2021/07/30 11:07:10;;;;;;;6.33;3.53;;;;;;;28.96;39.03;96173.17;127728;1093;39490;-94
2021/07/30 11:09:43;;;;;;;5.28;3.65;;;;;;;28.89;38.94;96186.14;127680;1093;31922;-94
2021/07/30 11:12:19;;;;;;;4.58;3.73;;;;;;;28.77;39.63;96189.37;127629;1092;30718;-94
2021/07/30 11:14:51;;;;;;;4.58;3.20;;;;;;;28.93;40.03;96187.64;127580;1093;29352;-92
2021/07/30 11:17:23;;;;;;;4.00;3.43;;;;;;;29.06;39.41;96187.11;127901;1092;32354;-93
2021/07/30 11:19:55;;;;;;;5.08;3.60;;;;;;;29.18;39.38;96173.69;127509;1093;34858;-93
2021/07/30 11:22:27;;;;;;;5.90;3.73;;;;;;;29.13;38.95;96174.13;127773;1093;30816;-95
2021/07/30 11:24:58;;;;;;;4.88;3.60;;;;;;;29.00;38.90;96175.88;127569;1093;28411;-94
2021/07/30 11:27:30;;;;;;;4.15;3.23;;;;;;;28.95;38.23;96168.13;127827;1093;37044;-94
2021/07/30 11:30:03;;;;;;;4.68;3.58;;;;;;;28.90;40.00;96169.36;126289;1093;1496376;-92
2021/07/30 11:32:35;;;;;;;5.68;4.18;;;;;;;28.93;40.32;96171.27;127686;1093;39638;-93
2021/07/30 11:35:10;;;;;;;4.58;3.60;;;;;;;28.87;39.76;96174.87;127917;1093;28433;-94
2021/07/30 11:37:41;;;;;;;5.97;3.80;;;;;;;28.71;39.10;96164.47;127876;1093;39016;-94
2021/07/30 11:40:19;;;;;;;4.43;3.53;;;;;;;28.68;40.14;96165.29;127649;1093;26857;-94
2021/07/30 11:42:50;;;;;;;5.10;3.90;;;;;;;28.69;39.11;96173.06;127866;1092;33751;-93
2021/07/30 11:45:24;;;;;;;5.28;3.90;;;;;;;28.76;39.59;96174.19;127559;1093;27129;-91
2021/07/30 11:47:57;;;;;;;3.95;3.25;;;;;;;28.82;39.09;96156.17;127649;1093;31754;-93
2021/07/30 11:50:30;;;;;;;5.08;3.65;;;;;;;28.87;39.47;96159.27;127611;1093;33640;-94
2021/07/30 11:53:08;;;;;;;4.35;3.48;;;;;;;28.85;38.23;96153.39;127600;1093;41051;-94